createdAt,value
2022-08-19T00:00:45.096Z,7.37
2022-08-19T00:03:11.654Z,8.13
2022-08-19T00:05:38.202Z,7.60
2022-08-19T00:08:04.908Z,7.27
2022-08-19T00:10:31.554Z,7.20
2022-08-19T00:12:58.087Z,8.00
2022-08-19T00:15:24.593Z,7.67
2022-08-19T00:17:51.956Z,7.10
2022-08-19T00:20:21.808Z,6.47
2022-08-19T00:22:48.463Z,5.55
2022-08-19T00:25:15.828Z,6.60
2022-08-19T00:27:42.338Z,5.10
2022-08-19T00:30:09.461Z,4.07
2022-08-19T00:32:36.010Z,3.97
2022-08-19T00:35:02.561Z,4.33
2022-08-19T00:37:29.445Z,3.27
2022-08-19T00:39:56.033Z,3.10
2022-08-19T00:42:22.913Z,2.80
2022-08-19T00:44:49.615Z,3.40
2022-08-19T00:47:16.241Z,4.13
2022-08-19T00:49:48.303Z,4.63
2022-08-19T00:52:16.746Z,4.87
2022-08-19T00:54:44.549Z,6.27
2022-08-19T00:57:13.339Z,5.37
2022-08-19T00:59:58.860Z,5.93
2022-08-19T01:02:28.246Z,5.47
2022-08-19T01:04:55.284Z,5.60
2022-08-19T01:07:21.884Z,5.87
2022-08-19T01:09:50.568Z,6.13
2022-08-19T01:12:17.847Z,6.77
2022-08-19T01:14:44.467Z,5.37
2022-08-19T01:17:12.515Z,5.03
2022-08-19T01:19:44.073Z,5.57
2022-08-19T01:22:38.982Z,5.37
2022-08-19T01:25:09.521Z,4.77
2022-08-19T01:27:44.048Z,4.70
2022-08-19T01:30:17.079Z,4.70
2022-08-19T01:32:43.721Z,5.80
2022-08-19T01:35:10.623Z,5.63
2022-08-19T01:37:49.779Z,5.17
2022-08-19T01:40:17.564Z,5.38
2022-08-19T01:42:44.090Z,4.97
2022-08-19T01:45:11.151Z,3.50
2022-08-19T01:47:37.913Z,4.60
2022-08-19T01:50:07.264Z,3.53
2022-08-19T01:52:36.329Z,3.38
2022-08-19T01:55:02.930Z,3.38
2022-08-19T01:57:29.597Z,3.67
2022-08-19T01:59:56.186Z,3.20
2022-08-19T02:02:22.684Z,3.43
2022-08-19T02:04:49.164Z,4.33
2022-08-19T02:07:15.692Z,5.13
2022-08-19T02:09:42.192Z,6.00
2022-08-19T02:12:08.793Z,5.77
2022-08-19T02:14:37.173Z,6.60
2022-08-19T02:17:04.552Z,6.83
2022-08-19T02:19:31.044Z,4.90
2022-08-19T02:21:57.554Z,5.60
2022-08-19T02:24:24.099Z,6.87
2022-08-19T02:26:50.588Z,5.83
2022-08-19T02:29:17.108Z,5.73
2022-08-19T02:31:43.644Z,6.33
2022-08-19T02:34:10.185Z,7.83
2022-08-19T02:36:36.859Z,7.90
2022-08-19T02:39:09.555Z,8.20
2022-08-19T02:41:36.144Z,6.50
2022-08-19T02:44:26.745Z,6.87
2022-08-19T02:46:50.564Z,5.57
2022-08-19T02:49:18.918Z,6.60
2022-08-19T02:51:46.951Z,6.13
2022-08-19T02:54:14.126Z,5.53
2022-08-19T02:56:42.372Z,6.07
2022-08-19T02:59:08.874Z,5.10
2022-08-19T03:01:37.055Z,5.00
2022-08-19T03:04:06.420Z,4.63
2022-08-19T03:06:33.339Z,5.60
2022-08-19T03:08:59.816Z,3.60
2022-08-19T03:11:29.778Z,4.70
2022-08-19T03:16:27.967Z,4.33
2022-08-19T03:18:56.743Z,4.43
2022-08-19T03:21:25.639Z,3.90
2022-08-19T03:23:55.549Z,5.10
2022-08-19T03:28:51.104Z,4.30
2022-08-19T03:34:08.595Z,3.13
2022-08-19T03:36:35.079Z,3.77
2022-08-19T03:39:01.986Z,2.70
2022-08-19T03:41:34.270Z,2.70
2022-08-19T03:44:12.678Z,2.57
2022-08-19T03:46:44.965Z,1.83
2022-08-19T03:49:11.623Z,9.33
2022-08-19T03:51:41.916Z,1.70
2022-08-19T03:54:11.536Z,2.43
2022-08-19T03:56:40.016Z,2.03
2022-08-19T03:59:09.598Z,3.10
2022-08-19T04:01:36.476Z,4.28
2022-08-19T04:04:04.837Z,2.50
2022-08-19T04:06:39.422Z,2.40
2022-08-19T04:09:09.947Z,2.40
2022-08-19T04:11:48.756Z,2.27
2022-08-19T04:14:35.720Z,1.93
2022-08-19T04:17:03.157Z,1.80
2022-08-19T04:19:31.300Z,1.93
2022-08-19T04:21:58.160Z,1.80
2022-08-19T04:24:24.910Z,1.83
2022-08-19T04:26:53.029Z,2.23
2022-08-19T04:29:25.052Z,2.10
2022-08-19T04:31:52.916Z,1.87
2022-08-19T04:34:21.394Z,3.00
2022-08-19T04:36:47.874Z,2.20
2022-08-19T04:39:17.078Z,1.70
2022-08-19T04:41:44.547Z,6.15
2022-08-19T04:44:12.883Z,3.53
2022-08-19T04:46:50.818Z,1.73
2022-08-19T04:49:20.147Z,1.53
2022-08-19T04:51:47.620Z,2.53
2022-08-19T04:54:15.060Z,2.03
2022-08-19T04:56:53.982Z,2.47
2022-08-19T04:59:21.491Z,3.03
2022-08-19T05:01:48.594Z,1.80
2022-08-19T05:04:21.380Z,2.40
2022-08-19T05:06:49.325Z,2.03
2022-08-19T05:09:16.789Z,2.00
2022-08-19T05:11:44.020Z,2.83
2022-08-19T05:14:11.092Z,3.00
2022-08-19T05:16:38.735Z,2.03
2022-08-19T05:19:05.202Z,1.80
2022-08-19T05:21:32.334Z,2.60
2022-08-19T05:23:59.091Z,4.13
2022-08-19T05:26:27.018Z,2.57
2022-08-19T05:28:54.800Z,3.90
2022-08-19T05:31:21.949Z,2.30
2022-08-19T05:33:48.543Z,3.07
2022-08-19T05:36:15.079Z,3.33
2022-08-19T05:38:41.574Z,3.30
2022-08-19T05:41:12.434Z,4.03
2022-08-19T05:43:41.364Z,2.60
2022-08-19T05:46:08.380Z,4.73
2022-08-19T05:48:35.790Z,4.50
2022-08-19T05:51:06.710Z,5.17
2022-08-19T05:53:36.848Z,9.33
2022-08-19T05:56:08.669Z,5.53
2022-08-19T05:58:36.963Z,7.60
2022-08-19T06:01:05.109Z,6.23
2022-08-19T06:03:35.084Z,5.30
2022-08-19T06:06:01.629Z,6.03
2022-08-19T06:08:34.321Z,6.57
2022-08-19T06:11:24.681Z,5.90
2022-08-19T06:13:59.503Z,9.80
2022-08-19T06:16:27.394Z,18.20
2022-08-19T06:18:54.216Z,17.57
2022-08-19T06:21:24.745Z,9.10
2022-08-19T06:23:52.418Z,8.57
2022-08-19T06:26:20.177Z,12.90
2022-08-19T06:28:48.280Z,51.17
2022-08-19T06:31:27.021Z,7.87
2022-08-19T06:33:53.965Z,12.10
2022-08-19T06:36:27.205Z,11.17
2022-08-19T06:38:56.812Z,9.17
2022-08-19T06:41:23.358Z,10.15
2022-08-19T06:43:49.860Z,9.60
2022-08-19T06:46:21.151Z,9.33
2022-08-19T06:48:48.198Z,9.43
2022-08-19T06:51:16.168Z,10.27
2022-08-19T06:53:47.544Z,10.23
2022-08-19T06:56:19.813Z,6.60
2022-08-19T06:58:46.331Z,7.33
2022-08-19T07:01:13.014Z,6.77
2022-08-19T07:03:39.956Z,8.97
2022-08-19T07:06:43.373Z,9.03
2022-08-19T07:09:08.291Z,6.97
2022-08-19T07:11:35.543Z,5.80
2022-08-19T07:14:02.696Z,6.30
2022-08-19T07:16:30.461Z,5.93
2022-08-19T07:18:57.172Z,7.40
2022-08-19T07:21:27.042Z,6.57
2022-08-19T07:23:57.629Z,6.07
2022-08-19T07:26:30.817Z,5.97
2022-08-19T07:28:59.252Z,7.27
2022-08-19T07:31:27.333Z,10.30
2022-08-19T07:33:57.847Z,7.43
2022-08-19T07:36:27.296Z,8.73
2022-08-19T07:38:53.885Z,9.88
2022-08-19T07:41:23.444Z,10.77
2022-08-19T07:43:50.574Z,9.13
2022-08-19T07:46:17.549Z,10.33
2022-08-19T07:48:45.215Z,8.80
2022-08-19T07:51:12.327Z,8.10
2022-08-19T07:53:41.170Z,9.95
2022-08-19T07:56:08.024Z,8.33
2022-08-19T07:58:40.216Z,8.90
2022-08-19T08:01:09.182Z,8.30
2022-08-19T08:03:37.810Z,8.43
2022-08-19T08:06:04.402Z,10.07
2022-08-19T08:08:33.509Z,8.95
2022-08-19T08:11:01.026Z,8.33
2022-08-19T08:13:29.078Z,9.50
2022-08-19T08:15:56.958Z,8.83
2022-08-19T08:18:28.146Z,8.70
2022-08-19T08:20:57.743Z,7.37
2022-08-19T08:23:24.971Z,8.23
2022-08-19T08:25:53.111Z,8.37
2022-08-19T08:28:19.950Z,9.77
2022-08-19T08:30:47.893Z,8.00
2022-08-19T08:33:17.908Z,8.00
2022-08-19T08:35:59.785Z,7.57
2022-08-19T08:38:26.708Z,9.13
2022-08-19T08:41:01.090Z,9.07
2022-08-19T08:43:34.897Z,8.10
2022-08-19T08:46:04.436Z,9.13
2022-08-19T08:48:37.445Z,7.03
2022-08-19T08:51:09.303Z,7.10
2022-08-19T08:53:40.464Z,7.50
2022-08-19T08:56:10.247Z,7.50
2022-08-19T08:59:19.375Z,7.97
2022-08-19T09:01:45.883Z,7.10
2022-08-19T09:04:13.484Z,7.43
2022-08-19T09:06:49.721Z,6.87
2022-08-19T09:09:32.134Z,7.13
2022-08-19T09:12:14.821Z,6.73
2022-08-19T09:14:54.874Z,7.07
2022-08-19T09:17:24.531Z,9.67
2022-08-19T09:19:54.553Z,6.95
2022-08-19T09:22:25.962Z,6.90
2022-08-19T09:24:54.112Z,6.77
2022-08-19T09:27:21.956Z,6.90
2022-08-19T09:30:10.591Z,6.80
2022-08-19T09:32:37.763Z,7.68
2022-08-19T09:35:08.860Z,7.60
2022-08-19T09:37:37.022Z,7.30
2022-08-19T09:40:04.721Z,7.13
2022-08-19T09:42:35.507Z,8.00
2022-08-19T09:45:05.318Z,7.80
2022-08-19T09:47:37.711Z,7.50
2022-08-19T09:50:09.368Z,9.13
2022-08-19T09:52:38.307Z,7.73
2022-08-19T09:55:09.845Z,7.67
2022-08-19T09:57:36.768Z,7.70
2022-08-19T10:00:05.808Z,7.43
2022-08-19T10:02:32.370Z,7.72
2022-08-19T10:05:00.970Z,7.53
2022-08-19T10:07:36.084Z,6.63
2022-08-19T10:10:06.635Z,6.57
2022-08-19T10:12:35.469Z,6.93
2022-08-19T10:15:02.891Z,6.40
2022-08-19T10:17:31.620Z,6.23
2022-08-19T10:20:00.824Z,5.87
2022-08-19T10:22:27.516Z,5.80
2022-08-19T10:24:54.470Z,5.90
2022-08-19T10:27:21.220Z,6.00
2022-08-19T10:29:47.887Z,5.77
2022-08-19T10:32:14.538Z,6.20
2022-08-19T10:34:48.303Z,6.73
2022-08-19T10:37:22.839Z,6.77
2022-08-19T10:39:56.040Z,5.47
2022-08-19T10:42:22.723Z,5.90
2022-08-19T10:44:49.228Z,6.50
2022-08-19T10:47:25.420Z,6.97
2022-08-19T10:49:53.996Z,6.90
2022-08-19T10:52:32.300Z,7.13
2022-08-19T10:54:59.194Z,6.50
2022-08-19T10:57:52.336Z,5.97
2022-08-19T11:00:20.840Z,5.73
2022-08-19T11:02:48.209Z,6.20
2022-08-19T11:05:15.385Z,7.40
2022-08-19T11:07:42.961Z,6.83
2022-08-19T11:10:17.137Z,7.43
2022-08-19T11:12:46.240Z,6.40
2022-08-19T11:15:12.957Z,6.30
2022-08-19T11:17:39.946Z,6.80
2022-08-19T11:20:09.338Z,6.30
2022-08-19T11:22:40.935Z,6.80
2022-08-19T11:25:11.169Z,6.63
2022-08-19T11:27:41.730Z,6.60
2022-08-19T11:30:12.768Z,6.30
2022-08-19T11:32:43.565Z,6.00
2022-08-19T11:35:13.810Z,5.90
2022-08-19T11:37:40.311Z,8.53
2022-08-19T11:40:07.684Z,6.93
2022-08-19T11:42:36.496Z,6.90
2022-08-19T11:45:04.398Z,7.72
2022-08-19T11:47:31.445Z,6.27
2022-08-19T11:50:01.041Z,6.07
2022-08-19T11:52:27.956Z,6.27
2022-08-19T11:54:55.348Z,6.43
2022-08-19T11:57:22.034Z,6.53
2022-08-19T11:59:53.210Z,9.30
2022-08-19T12:02:20.364Z,5.40
2022-08-19T12:04:46.855Z,7.20
2022-08-19T12:07:13.721Z,5.90
2022-08-19T12:09:42.869Z,6.23
2022-08-19T12:12:10.176Z,6.13
2022-08-19T12:14:36.833Z,6.97
2022-08-19T12:17:03.542Z,6.13
2022-08-19T12:19:30.052Z,6.23
2022-08-19T12:22:00.240Z,6.47
2022-08-19T12:24:26.737Z,7.10
2022-08-19T12:26:54.022Z,6.07
2022-08-19T12:29:23.836Z,4.93
2022-08-19T12:31:51.565Z,4.90
2022-08-19T12:34:18.089Z,5.00
2022-08-19T12:36:47.450Z,5.13
2022-08-19T12:39:13.943Z,5.47
2022-08-19T12:41:47.556Z,4.83
2022-08-19T12:44:21.014Z,4.73
2022-08-19T12:46:56.824Z,4.70
2022-08-19T12:49:53.387Z,5.03
2022-08-19T12:52:11.411Z,4.73
2022-08-19T12:54:40.789Z,5.27
2022-08-19T12:57:08.614Z,5.17
2022-08-19T12:59:36.476Z,6.57
2022-08-19T13:02:04.624Z,5.60
2022-08-19T13:04:31.134Z,6.03
2022-08-19T13:06:58.107Z,5.10
2022-08-19T13:09:24.888Z,5.47
2022-08-19T13:11:51.806Z,8.53
2022-08-19T13:14:18.557Z,5.97
2022-08-19T13:16:45.479Z,6.67
2022-08-19T13:19:11.976Z,6.10
2022-08-19T13:21:38.541Z,6.40
2022-08-19T13:24:05.226Z,5.73
2022-08-19T13:26:31.730Z,6.87
2022-08-19T13:28:58.376Z,7.20
2022-08-19T13:31:27.355Z,6.73
2022-08-19T13:33:53.936Z,7.13
2022-08-19T13:36:20.754Z,7.70
2022-08-19T13:38:49.540Z,7.00
2022-08-19T13:41:16.126Z,7.38
2022-08-19T13:43:42.680Z,7.57
2022-08-19T13:46:11.515Z,8.37
2022-08-19T13:48:38.185Z,8.85
2022-08-19T13:51:06.405Z,7.33
2022-08-19T13:53:33.355Z,7.97
2022-08-19T13:55:59.956Z,7.70
2022-08-19T13:58:26.475Z,7.70
2022-08-19T14:00:53.123Z,8.20
2022-08-19T14:03:20.233Z,8.43
2022-08-19T14:05:47.055Z,8.70
2022-08-19T14:08:13.879Z,8.47
2022-08-19T14:10:40.700Z,8.13
2022-08-19T14:13:07.407Z,7.80
2022-08-19T14:15:33.958Z,8.77
2022-08-19T14:18:00.599Z,11.17
2022-08-19T14:20:27.672Z,8.13
2022-08-19T14:22:55.006Z,10.27
2022-08-19T14:25:24.516Z,8.10
2022-08-19T14:30:22.316Z,8.40
2022-08-19T14:32:48.821Z,8.50
2022-08-19T14:35:16.858Z,8.10
2022-08-19T14:37:45.674Z,8.83
2022-08-19T14:40:15.080Z,8.68
2022-08-19T14:42:42.169Z,8.60
2022-08-19T14:45:10.015Z,11.23
2022-08-19T14:47:40.005Z,8.57
2022-08-19T14:50:10.571Z,8.40
2022-08-19T14:52:48.197Z,8.17
2022-08-19T14:55:16.335Z,8.00
2022-08-19T14:57:43.903Z,9.07
2022-08-19T15:00:11.943Z,9.30
2022-08-19T15:02:38.478Z,8.80
2022-08-19T15:05:05.427Z,8.10
2022-08-19T15:07:32.022Z,8.43
2022-08-19T15:09:58.631Z,9.00
2022-08-19T15:12:25.376Z,9.30
2022-08-19T15:14:52.981Z,8.60
2022-08-19T15:17:43.369Z,8.83
2022-08-19T15:20:14.051Z,9.60
2022-08-19T15:22:40.668Z,11.67
2022-08-19T15:25:08.860Z,13.83
2022-08-19T15:27:39.473Z,11.30
2022-08-19T15:30:07.701Z,14.10
2022-08-19T15:32:35.423Z,11.10
2022-08-19T15:35:01.960Z,12.47
2022-08-19T15:37:30.594Z,12.70
2022-08-19T15:39:58.738Z,12.70
2022-08-19T15:42:29.349Z,12.50
2022-08-19T15:45:00.382Z,13.30
2022-08-19T15:47:35.239Z,13.03
2022-08-19T15:50:15.559Z,12.63
2022-08-19T15:52:52.929Z,12.57
2022-08-19T15:55:33.412Z,12.73
2022-08-19T15:58:06.768Z,11.57
2022-08-19T16:00:34.320Z,14.30
2022-08-19T16:03:00.935Z,12.40
2022-08-19T16:05:27.542Z,11.43
2022-08-19T16:07:54.210Z,11.80
2022-08-19T16:10:26.027Z,12.10
2022-08-19T16:12:54.864Z,11.73
2022-08-19T16:15:22.202Z,13.93
2022-08-19T16:17:55.485Z,13.73
2022-08-19T16:20:25.537Z,14.93
2022-08-19T16:22:53.701Z,13.80
2022-08-19T16:25:20.891Z,13.07
2022-08-19T16:27:54.234Z,14.40
2022-08-19T16:30:34.756Z,16.20
2022-08-19T16:33:01.270Z,15.73
2022-08-19T16:35:27.760Z,16.13
2022-08-19T16:37:54.387Z,16.80
2022-08-19T16:40:21.073Z,17.17
2022-08-19T16:42:48.306Z,15.43
2022-08-19T16:45:14.978Z,17.20
2022-08-19T16:47:41.549Z,16.77
2022-08-19T16:50:08.906Z,16.73
2022-08-19T16:52:35.596Z,14.93
2022-08-19T16:55:02.329Z,13.77
2022-08-19T16:57:28.795Z,14.57
2022-08-19T16:59:57.403Z,14.43
2022-08-19T17:02:29.594Z,13.43
2022-08-19T17:05:01.598Z,15.00
2022-08-19T17:07:28.558Z,15.43
2022-08-19T17:09:55.946Z,15.10
2022-08-19T17:12:30.349Z,15.57
2022-08-19T17:14:58.578Z,15.97
2022-08-19T17:17:28.875Z,14.67
2022-08-19T17:19:56.029Z,14.50
2022-08-19T17:22:22.804Z,15.87
2022-08-19T17:24:49.309Z,13.57
2022-08-19T17:27:15.894Z,15.00
2022-08-19T17:29:46.753Z,14.80
2022-08-19T17:32:14.597Z,13.13
2022-08-19T17:34:41.084Z,13.67
2022-08-19T17:37:08.023Z,14.60
2022-08-19T17:39:39.002Z,14.53
2022-08-19T17:42:06.936Z,15.17
2022-08-19T17:44:35.174Z,15.80
2022-08-19T17:47:01.778Z,15.97
2022-08-19T17:49:28.730Z,15.00
2022-08-19T17:51:55.380Z,15.50
2022-08-19T17:54:22.282Z,15.73
2022-08-19T17:56:48.925Z,14.37
2022-08-19T17:59:16.179Z,15.90
2022-08-19T18:01:53.630Z,14.20
2022-08-19T18:04:23.877Z,13.77
2022-08-19T18:06:53.120Z,14.85
2022-08-19T18:09:30.107Z,14.20
2022-08-19T18:12:12.586Z,13.13
2022-08-19T18:14:40.279Z,15.17
2022-08-19T18:17:14.623Z,14.20
2022-08-19T18:19:43.594Z,15.30
2022-08-19T18:22:22.927Z,14.38
2022-08-19T18:24:49.754Z,14.38
2022-08-19T18:27:16.744Z,13.93
2022-08-19T18:29:43.624Z,13.97
2022-08-19T18:32:14.671Z,15.63
2022-08-19T18:34:42.296Z,14.90
2022-08-19T18:37:09.237Z,13.37
2022-08-19T18:39:36.219Z,13.47
2022-08-19T18:42:17.236Z,14.55
2022-08-19T18:44:45.140Z,14.32
2022-08-19T18:47:12.051Z,14.03
2022-08-19T18:49:38.634Z,12.57
2022-08-19T18:52:05.173Z,13.73
2022-08-19T18:54:32.462Z,15.23
2022-08-19T18:56:59.322Z,15.03
2022-08-19T18:59:27.518Z,13.60
2022-08-19T19:01:55.340Z,14.20
2022-08-19T19:04:27.142Z,14.97
2022-08-19T19:06:54.066Z,14.17
2022-08-19T19:09:22.799Z,13.63
2022-08-19T19:11:52.410Z,13.90
2022-08-19T19:14:48.235Z,13.82
2022-08-19T19:20:10.532Z,13.40
2022-08-19T19:22:40.595Z,13.70
2022-08-19T19:25:07.483Z,15.80
2022-08-19T19:27:34.164Z,15.63
2022-08-19T19:30:00.738Z,18.17
2022-08-19T19:32:29.092Z,17.67
2022-08-19T19:34:56.038Z,16.40
2022-08-19T19:37:24.534Z,18.27
2022-08-19T19:39:51.251Z,17.30
2022-08-19T19:42:21.254Z,17.23
2022-08-19T19:44:50.375Z,15.53
2022-08-19T19:47:17.517Z,17.00
2022-08-19T19:50:10.844Z,17.37
2022-08-19T19:52:32.240Z,16.93
2022-08-19T19:54:58.795Z,16.87
2022-08-19T19:57:28.402Z,14.90
2022-08-19T19:59:56.115Z,15.02
2022-08-19T20:02:22.647Z,15.63
2022-08-19T20:04:49.253Z,15.33
2022-08-19T20:07:15.856Z,14.73
2022-08-19T20:09:58.906Z,15.67
2022-08-19T20:12:26.438Z,14.40
2022-08-19T20:14:53.009Z,13.57
2022-08-19T20:17:19.589Z,14.60
2022-08-19T20:19:46.255Z,13.37
2022-08-19T20:22:13.671Z,13.63
2022-08-19T20:24:40.277Z,12.63
2022-08-19T20:27:06.812Z,13.60
2022-08-19T20:29:39.448Z,15.00
2022-08-19T20:32:07.672Z,11.20
2022-08-19T20:34:34.166Z,11.60
2022-08-19T20:37:00.673Z,11.33
2022-08-19T20:39:27.404Z,11.90
2022-08-19T20:41:54.016Z,11.47
2022-08-19T20:44:20.542Z,11.27
2022-08-19T20:46:54.616Z,11.53
2022-08-19T20:49:23.058Z,11.80
2022-08-19T20:51:53.988Z,12.30
2022-08-19T20:54:20.559Z,10.53
2022-08-19T20:56:47.054Z,11.23
2022-08-19T20:59:13.588Z,11.97
2022-08-19T21:01:40.103Z,10.00
2022-08-19T21:04:06.656Z,12.83
2022-08-19T21:06:33.132Z,10.87
2022-08-19T21:08:59.633Z,11.03
2022-08-19T21:11:26.186Z,11.47
2022-08-19T21:13:52.737Z,12.47
2022-08-19T21:16:19.366Z,13.70
2022-08-19T21:18:45.897Z,11.40
2022-08-19T21:21:12.514Z,12.10
2022-08-19T21:23:39.242Z,13.03
2022-08-19T21:26:06.279Z,11.23
2022-08-19T21:28:36.053Z,9.77
2022-08-19T21:31:07.625Z,11.23
2022-08-19T21:33:37.251Z,11.30
2022-08-19T21:36:06.950Z,11.00
2022-08-19T21:38:33.574Z,11.70
2022-08-19T21:43:42.220Z,10.90
2022-08-19T21:46:08.848Z,12.03
2022-08-19T21:48:35.924Z,11.97
2022-08-19T21:51:02.439Z,12.00
2022-08-19T21:53:34.213Z,11.90
2022-08-19T21:56:01.705Z,11.27
2022-08-19T21:58:30.690Z,14.23
2022-08-19T22:01:01.586Z,11.55
2022-08-19T22:03:28.943Z,11.10
2022-08-19T22:05:55.465Z,10.87
2022-08-19T22:08:21.971Z,10.87
2022-08-19T22:10:48.518Z,11.10
2022-08-19T22:13:15.034Z,13.57
2022-08-19T22:15:41.625Z,9.37
2022-08-19T22:18:08.133Z,10.33
2022-08-19T22:20:34.665Z,11.30
2022-08-19T22:23:04.247Z,10.30
2022-08-19T22:25:36.384Z,11.13
2022-08-19T22:28:07.909Z,11.27
2022-08-19T22:30:38.892Z,11.20
2022-08-19T22:33:12.179Z,13.67
2022-08-19T22:35:40.174Z,11.60
2022-08-19T22:38:08.065Z,10.53
2022-08-19T22:40:37.842Z,10.93
2022-08-19T22:43:07.615Z,10.80
2022-08-19T22:45:34.850Z,11.63
2022-08-19T22:48:01.873Z,10.67
2022-08-19T22:50:28.636Z,11.73
2022-08-19T22:52:58.230Z,14.23
2022-08-19T22:55:26.103Z,10.63
2022-08-19T22:57:53.714Z,10.20
2022-08-19T23:00:22.018Z,10.60
2022-08-19T23:02:51.935Z,9.60
2022-08-19T23:05:21.781Z,10.67
2022-08-19T23:07:52.310Z,12.98
2022-08-19T23:10:27.436Z,11.53
2022-08-19T23:12:56.840Z,10.33
2022-08-19T23:15:26.969Z,10.23
2022-08-19T23:17:55.585Z,10.93
2022-08-19T23:20:23.939Z,11.13
2022-08-19T23:22:50.439Z,10.87
2022-08-19T23:25:21.266Z,11.07
2022-08-19T23:27:50.803Z,10.87
2022-08-19T23:30:17.368Z,11.07
2022-08-19T23:32:43.946Z,11.47
2022-08-19T23:35:10.450Z,10.67
2022-08-19T23:37:37.005Z,11.80
2022-08-19T23:40:05.683Z,15.23
2022-08-19T23:42:32.362Z,12.73
2022-08-19T23:45:03.989Z,10.83
2022-08-19T23:47:30.525Z,11.67
2022-08-19T23:49:57.082Z,11.97
2022-08-19T23:52:23.720Z,13.03
2022-08-19T23:54:50.238Z,12.63
2022-08-19T23:57:16.764Z,12.43
2022-08-19T23:59:44.037Z,11.47
